Time;durP1;ratioP1;P1;durP2;ratioP2;P2;SDS_P1;SDS_P2;PMS_P1;PMS_P2;Temp;Humidity;BMP_temperature;BMP_pressure;BME280_temperature;BME280_humidity;BME280_pressure;Samples;Min_cycle;Max_cycle;Signal;HPM_P1;HPM_P2
2022/07/10 00:00:17;;;;;;;1.77;0.98;;;;;;;-148.56;100.00;61375.16;5078290;28;20028;-33
2022/07/10 00:03:44;;;;;;;1.40;1.10;;;;;;;-148.56;100.00;61375.16;5081301;28;20113;-31
2022/07/10 00:07:07;;;;;;;1.88;1.08;;;;;;;-148.56;100.00;61375.16;5078128;28;20036;-33
2022/07/10 00:10:33;;;;;;;1.45;1.10;;;;;;;-148.56;100.00;61375.16;5079788;28;20504;-32
2022/07/10 00:13:57;;;;;;;1.80;0.90;;;;;;;-148.56;100.00;61375.16;5079537;28;20036;-30
2022/07/10 00:17:21;;;;;;;1.10;1.00;;;;;;;-148.56;100.00;61375.16;5075248;28;20036;-31
2022/07/10 00:20:44;;;;;;;1.15;1.05;;;;;;;-148.56;100.00;61375.16;5081435;28;20059;-33
2022/07/10 00:24:10;;;;;;;1.30;1.20;;;;;;;-148.56;100.00;61375.16;5075441;28;20055;-28
2022/07/10 00:27:34;;;;;;;1.42;1.00;;;;;;;-148.56;100.00;61375.16;5078889;28;20065;-31
2022/07/10 00:30:57;;;;;;;2.92;0.82;;;;;;;-148.56;100.00;61375.16;5075150;28;20030;-30
2022/07/10 00:34:21;;;;;;;1.33;1.00;;;;;;;-148.56;100.00;61375.16;5077401;28;20028;-29
2022/07/10 00:37:45;;;;;;;1.02;0.93;;;;;;;-148.56;100.00;61375.16;5077569;28;23243;-29
2022/07/10 00:41:09;;;;;;;0.85;0.80;;;;;;;-148.56;100.00;61375.16;5074345;28;20024;-28
2022/07/10 00:44:53;;;;;;;1.10;0.85;;;;;;;-148.56;100.00;61375.16;5075771;28;20029;-29
2022/07/10 00:48:17;;;;;;;0.95;0.88;;;;;;;-148.56;100.00;61375.16;5078308;28;20031;-29
2022/07/10 00:51:41;;;;;;;0.95;0.82;;;;;;;-148.56;100.00;61375.16;5076928;28;21004;-33
2022/07/10 00:55:05;;;;;;;2.10;1.13;;;;;;;-148.56;100.00;61375.16;5071860;28;21725;-30
2022/07/10 00:58:29;;;;;;;4.45;1.00;;;;;;;-148.56;100.00;61375.16;5080873;28;20985;-32
2022/07/10 01:01:53;;;;;;;1.13;0.82;;;;;;;-148.56;100.00;61375.16;5061118;28;20030;-36
2022/07/10 01:05:17;;;;;;;1.15;1.00;;;;;;;-148.56;100.00;61375.16;5070869;28;20378;-31
2022/07/10 01:08:41;;;;;;;1.45;0.90;;;;;;;-148.56;100.00;61375.16;5077994;28;20035;-30
2022/07/10 01:12:06;;;;;;;1.30;1.00;;;;;;;-148.56;100.00;61375.16;5077489;28;20039;-30
2022/07/10 01:15:29;;;;;;;1.63;0.98;;;;;;;-148.56;100.00;61375.16;5061517;28;21049;-31
2022/07/10 01:18:53;;;;;;;0.80;0.80;;;;;;;-148.56;100.00;61375.16;5083727;28;20056;-29
2022/07/10 01:22:24;;;;;;;0.80;0.80;;;;;;;-148.56;100.00;61375.16;5080094;28;20047;-31
2022/07/10 01:25:48;;;;;;;1.35;1.00;;;;;;;-148.56;100.00;61375.16;5071996;28;21062;-30
2022/07/10 01:29:12;;;;;;;1.02;0.90;;;;;;;-148.56;100.00;61375.16;5081045;28;20075;-31
2022/07/10 01:32:37;;;;;;;1.40;0.90;;;;;;;-148.56;100.00;61375.16;5075133;28;20720;-31
2022/07/10 01:36:00;;;;;;;0.90;0.80;;;;;;;-148.56;100.00;61375.16;5070443;28;20065;-31
2022/07/10 01:39:24;;;;;;;1.02;0.90;;;;;;;-148.56;100.00;61375.16;5073379;28;20092;-30
2022/07/10 01:42:48;;;;;;;1.30;0.80;;;;;;;-148.56;100.00;61375.16;5081059;28;20035;-31
2022/07/10 01:46:14;;;;;;;1.40;0.82;;;;;;;-148.56;100.00;61375.16;5082969;27;20258;-30
2022/07/10 01:49:38;;;;;;;1.02;0.82;;;;;;;-148.56;100.00;61375.16;5079562;28;20394;-30
2022/07/10 01:53:05;;;;;;;2.55;1.00;;;;;;;-148.56;100.00;61375.16;5081016;27;21669;-33
2022/07/10 01:56:29;;;;;;;0.90;0.82;;;;;;;-148.56;100.00;61375.16;5081955;27;21024;-32
2022/07/10 01:59:53;;;;;;;0.80;0.80;;;;;;;-148.56;100.00;61375.16;5083061;27;20044;-30
2022/07/10 02:06:59;;;;;;;;;;;;;;;-148.56;100.00;61375.16;5078176;28;20728;-33
2022/07/10 02:10:23;;;;;;;1.65;0.70;;;;;;;-148.56;100.00;61375.16;5078790;27;19970;-31
2022/07/10 02:13:47;;;;;;;1.05;0.85;;;;;;;-148.56;100.00;61375.16;5076602;27;20054;-31
2022/07/10 02:17:11;;;;;;;0.70;0.70;;;;;;;-148.56;100.00;61375.16;5079913;27;20042;-29
2022/07/10 02:20:36;;;;;;;0.88;0.80;;;;;;;-148.56;100.00;61375.16;5080839;28;20031;-32
2022/07/10 02:24:00;;;;;;;0.82;0.80;;;;;;;-148.56;100.00;61375.16;5077830;27;20027;-30
2022/07/10 02:27:24;;;;;;;0.85;0.70;;;;;;;-148.56;100.00;61375.16;5078847;27;20066;-32
2022/07/10 02:30:48;;;;;;;0.68;0.65;;;;;;;-148.56;100.00;61375.16;5079012;28;20115;-32
2022/07/10 02:34:11;;;;;;;1.25;0.80;;;;;;;-148.56;100.00;61375.16;5073538;27;20028;-31
2022/07/10 02:37:36;;;;;;;1.60;0.85;;;;;;;-148.56;100.00;61375.16;5074375;27;20031;-33
2022/07/10 02:41:00;;;;;;;0.77;0.77;;;;;;;-148.56;100.00;61375.16;5078892;27;21381;-30
2022/07/10 02:44:24;;;;;;;1.02;0.80;;;;;;;-148.56;100.00;61375.16;5088753;28;20075;-31
2022/07/10 02:47:48;;;;;;;1.45;0.70;;;;;;;-148.56;100.00;61375.16;5085682;27;20042;-31
2022/07/10 02:51:12;;;;;;;1.23;0.82;;;;;;;-148.56;100.00;61375.16;5090043;28;20103;-33
2022/07/10 02:54:36;;;;;;;1.08;0.98;;;;;;;-148.56;100.00;61375.16;5084843;28;20384;-31
2022/07/10 02:58:00;;;;;;;0.95;0.70;;;;;;;-148.56;100.00;61375.16;5081199;28;20937;-26
2022/07/10 03:01:24;;;;;;;1.10;0.80;;;;;;;-148.56;100.00;61375.16;5081931;28;20028;-31
2022/07/10 03:04:48;;;;;;;1.52;1.00;;;;;;;-148.56;100.00;61375.16;5084743;28;20051;-33
2022/07/10 03:08:12;;;;;;;2.28;0.93;;;;;;;-148.56;100.00;61375.16;5081800;28;20831;-30
2022/07/10 03:11:36;;;;;;;0.80;0.75;;;;;;;-148.56;100.00;61375.16;5078692;28;20055;-33
2022/07/10 03:14:59;;;;;;;0.70;0.68;;;;;;;-148.56;100.00;61375.16;5068572;28;20494;-35
2022/07/10 03:18:23;;;;;;;0.65;0.65;;;;;;;-148.56;100.00;61375.16;5075168;28;20064;-32
2022/07/10 03:21:47;;;;;;;1.17;0.80;;;;;;;-148.56;100.00;61375.16;5084976;28;20679;-30
2022/07/10 03:25:11;;;;;;;1.27;1.00;;;;;;;-148.56;100.00;61375.16;5087717;28;20028;-30
2022/07/10 03:28:35;;;;;;;0.75;0.75;;;;;;;-148.56;100.00;61375.16;5091811;28;20027;-26
2022/07/10 03:31:59;;;;;;;0.80;0.80;;;;;;;-148.56;100.00;61375.16;5085848;28;20107;-31
2022/07/10 03:35:25;;;;;;;0.88;0.77;;;;;;;-148.56;100.00;61375.16;5086802;28;20032;-28
2022/07/10 03:38:49;;;;;;;1.23;0.80;;;;;;;-148.56;100.00;61375.16;5076280;28;20055;-32
2022/07/10 03:42:13;;;;;;;1.40;0.90;;;;;;;-148.56;100.00;61375.16;5073622;28;20517;-29
2022/07/10 03:45:37;;;;;;;0.82;0.70;;;;;;;-148.56;100.00;61375.16;5072112;28;20028;-30
2022/07/10 03:49:01;;;;;;;0.80;0.80;;;;;;;-148.56;100.00;61375.16;5074744;28;20150;-27
2022/07/10 03:52:24;;;;;;;1.55;0.80;;;;;;;-148.56;100.00;61375.16;5078286;28;20062;-30
2022/07/10 03:55:49;;;;;;;1.20;0.90;;;;;;;-148.56;100.00;61375.16;5073801;28;20684;-30
2022/07/10 03:59:13;;;;;;;1.25;1.08;;;;;;;-148.56;100.00;61375.16;5073374;28;20040;-30
2022/07/10 04:02:36;;;;;;;1.00;0.90;;;;;;;-148.56;100.00;61375.16;5076590;28;20031;-29
2022/07/10 04:06:03;;;;;;;0.93;0.70;;;;;;;-148.56;100.00;61375.16;5071330;28;20023;-29
2022/07/10 04:09:27;;;;;;;1.48;0.80;;;;;;;-148.56;100.00;61375.16;5077020;28;20039;-32
2022/07/10 04:12:51;;;;;;;1.25;0.80;;;;;;;-148.56;100.00;61375.16;5073410;28;20039;-28
2022/07/10 04:16:15;;;;;;;1.00;0.90;;;;;;;-148.56;100.00;61375.16;5073846;28;20142;-31
2022/07/10 04:19:39;;;;;;;2.33;0.60;;;;;;;-148.56;100.00;61375.16;5080743;28;20035;-30
2022/07/10 04:23:02;;;;;;;0.60;0.60;;;;;;;-148.56;100.00;61375.16;5079595;28;20059;-30
2022/07/10 04:26:26;;;;;;;0.77;0.70;;;;;;;-148.56;100.00;61375.16;5083428;28;20118;-30
2022/07/10 04:29:50;;;;;;;0.80;0.80;;;;;;;-148.56;100.00;61375.16;5080840;28;20134;-31
2022/07/10 04:33:14;;;;;;;0.70;0.70;;;;;;;-148.56;100.00;61375.16;5076242;28;20027;-29
2022/07/10 04:36:38;;;;;;;1.13;0.90;;;;;;;-148.56;100.00;61375.16;5078616;28;20498;-28
2022/07/10 04:40:02;;;;;;;0.70;0.70;;;;;;;-148.56;100.00;61375.16;5075418;28;20126;-29
2022/07/10 04:43:26;;;;;;;0.70;0.70;;;;;;;-148.56;100.00;61375.16;5076681;28;20067;-31
2022/07/10 04:46:50;;;;;;;1.00;0.85;;;;;;;-148.56;100.00;61375.16;5075003;28;20130;-32
2022/07/10 04:50:14;;;;;;;1.00;0.85;;;;;;;-148.56;100.00;61375.16;5079176;28;20142;-31
2022/07/10 04:53:38;;;;;;;2.00;0.90;;;;;;;-148.56;100.00;61375.16;5075281;28;20119;-29
2022/07/10 04:57:02;;;;;;;1.17;0.80;;;;;;;-148.56;100.00;61375.16;5082202;28;20034;-32
2022/07/10 05:00:25;;;;;;;0.73;0.73;;;;;;;-148.56;100.00;61375.16;5081682;28;20156;-29
2022/07/10 05:03:49;;;;;;;1.38;0.70;;;;;;;-148.56;100.00;61375.16;5078865;28;20034;-30
2022/07/10 05:07:14;;;;;;;0.85;0.60;;;;;;;-148.56;100.00;61375.16;5072612;28;20035;-29
2022/07/10 05:10:39;;;;;;;1.38;1.00;;;;;;;-148.56;100.00;61375.16;5073862;28;20043;-35
2022/07/10 05:14:03;;;;;;;1.00;0.85;;;;;;;-148.56;100.00;61375.16;5075850;28;20110;-31
2022/07/10 05:17:28;;;;;;;0.80;0.80;;;;;;;-148.56;100.00;61375.16;5071109;28;20058;-32
2022/07/10 05:20:52;;;;;;;0.68;0.68;;;;;;;-148.56;100.00;61375.16;5072848;28;20509;-29
2022/07/10 05:24:16;;;;;;;0.88;0.82;;;;;;;-148.56;100.00;61375.16;5077980;28;20039;-29
2022/07/10 05:27:40;;;;;;;0.90;0.80;;;;;;;-148.56;100.00;61375.16;5072296;28;20039;-32
2022/07/10 05:31:04;;;;;;;1.30;0.82;;;;;;;-148.56;100.00;61375.16;5075480;28;20165;-32
2022/07/10 05:34:28;;;;;;;1.50;0.95;;;;;;;-148.56;100.00;61375.16;5076288;28;20027;-31
2022/07/10 05:37:52;;;;;;;0.60;0.57;;;;;;;-148.56;100.00;61375.16;5076792;28;20028;-29
2022/07/10 05:41:16;;;;;;;1.05;0.82;;;;;;;-148.56;100.00;61375.16;5074262;28;21146;-34
2022/07/10 05:44:39;;;;;;;1.50;0.82;;;;;;;-148.56;100.00;61375.16;5075092;28;20031;-32
2022/07/10 05:48:03;;;;;;;0.70;0.70;;;;;;;-148.56;100.00;61375.16;5080236;28;20051;-33
2022/07/10 05:51:27;;;;;;;0.70;0.70;;;;;;;-148.56;100.00;61375.16;5076489;28;20806;-31
2022/07/10 05:54:51;;;;;;;0.88;0.75;;;;;;;-148.56;100.00;61375.16;5074069;28;20769;-33
2022/07/10 05:58:16;;;;;;;0.70;0.70;;;;;;;-148.56;100.00;61375.16;5055592;28;20446;-31
2022/07/10 06:01:39;;;;;;;0.73;0.57;;;;;;;-148.56;100.00;61375.16;5076650;28;20051;-31
2022/07/10 06:05:03;;;;;;;1.45;1.02;;;;;;;-148.56;100.00;61375.16;5068363;28;20084;-31
2022/07/10 06:08:27;;;;;;;0.80;0.70;;;;;;;-148.56;100.00;61375.16;5074743;28;20027;-29
2022/07/10 06:11:51;;;;;;;0.82;0.65;;;;;;;-148.56;100.00;61375.16;5071971;28;20050;-35
2022/07/10 06:15:15;;;;;;;1.38;0.70;;;;;;;-148.56;100.00;61375.16;5075393;28;20088;-31
2022/07/10 06:18:39;;;;;;;0.75;0.75;;;;;;;-148.56;100.00;61375.16;5080524;28;20042;-31
2022/07/10 06:25:48;;;;;;;1.95;0.75;;;;;;;-148.56;100.00;61375.16;5071795;28;20117;-33
2022/07/10 06:29:12;;;;;;;1.60;0.70;;;;;;;-148.56;100.00;61375.16;5081122;28;20567;-30
2022/07/10 06:32:36;;;;;;;0.85;0.70;;;;;;;-148.56;100.00;61375.16;5083143;28;20150;-32
2022/07/10 06:36:00;;;;;;;3.10;0.93;;;;;;;-148.56;100.00;61375.16;5088208;28;20054;-30
2022/07/10 06:39:24;;;;;;;1.52;0.93;;;;;;;-148.56;100.00;61375.16;5083629;28;20031;-30
2022/07/10 06:42:47;;;;;;;3.10;0.98;;;;;;;-148.56;100.00;61375.16;5084264;28;20027;-33
2022/07/10 06:46:11;;;;;;;14.85;1.83;;;;;;;-148.56;100.00;61375.16;5078647;28;20123;-33
2022/07/10 06:49:35;;;;;;;3.35;1.48;;;;;;;-148.56;100.00;61375.16;5082270;28;20790;-34
2022/07/10 06:52:59;;;;;;;4.47;2.20;;;;;;;-148.56;100.00;61375.16;5087790;28;20035;-29
2022/07/10 06:56:23;;;;;;;7.95;2.00;;;;;;;-148.56;100.00;61375.16;5087394;28;20059;-33
2022/07/10 06:59:47;;;;;;;9.02;2.67;;;;;;;-148.56;100.00;61375.16;5078422;28;20019;-33
2022/07/10 07:03:11;;;;;;;7.82;2.90;;;;;;;-148.56;100.00;61375.16;5073029;28;21393;-31
2022/07/10 07:06:35;;;;;;;9.38;2.65;;;;;;;-148.56;100.00;61375.16;5078400;28;20031;-32
2022/07/10 07:09:59;;;;;;;8.65;3.40;;;;;;;-148.56;100.00;61375.16;5083139;28;20048;-32
2022/07/10 07:13:23;;;;;;;9.68;3.55;;;;;;;-148.56;100.00;61375.16;5081592;28;20141;-31
2022/07/10 07:16:57;;;;;;;8.20;3.28;;;;;;;-148.56;100.00;61375.16;5080942;28;20989;-30
2022/07/10 07:24:05;;;;;;;10.40;3.72;;;;;;;-148.56;100.00;61375.16;5087774;28;21018;-32
2022/07/10 07:27:28;;;;;;;9.35;3.78;;;;;;;-148.56;100.00;61375.16;5078399;28;20052;-31
2022/07/10 07:30:52;;;;;;;8.93;3.80;;;;;;;-148.56;100.00;61375.16;5076301;28;20648;-31
2022/07/10 07:34:16;;;;;;;10.30;3.30;;;;;;;-148.56;100.00;61375.16;5073943;28;20051;-31
2022/07/10 07:37:40;;;;;;;9.20;3.30;;;;;;;-148.56;100.00;61375.16;5074058;28;20032;-31
2022/07/10 07:41:05;;;;;;;8.82;3.25;;;;;;;-148.56;100.00;61375.16;5078684;28;20035;-29
2022/07/10 07:44:29;;;;;;;9.93;3.35;;;;;;;-148.56;100.00;61375.16;5072139;28;20143;-32
2022/07/10 07:47:55;;;;;;;6.30;3.10;;;;;;;-148.56;100.00;61375.16;5071953;28;20027;-34
2022/07/10 07:51:19;;;;;;;8.68;1.90;;;;;;;-148.56;100.00;61375.16;5084256;28;20036;-33
2022/07/10 07:54:43;;;;;;;5.53;2.00;;;;;;;-148.56;100.00;61375.16;5079893;28;20444;-31
2022/07/10 07:58:07;;;;;;;6.03;2.10;;;;;;;-148.56;100.00;61375.16;5084626;28;20027;-26
2022/07/10 08:01:31;;;;;;;4.18;1.90;;;;;;;-148.56;100.00;61375.16;5078972;28;20097;-33
2022/07/10 08:04:55;;;;;;;4.45;1.70;;;;;;;-148.56;100.00;61375.16;5081496;28;20096;-32
2022/07/10 08:08:19;;;;;;;4.97;1.75;;;;;;;-148.56;100.00;61375.16;5078832;28;20032;-30
2022/07/10 08:11:43;;;;;;;8.00;2.15;;;;;;;-148.56;100.00;61375.16;5085146;28;20028;-33
2022/07/10 08:15:07;;;;;;;5.18;1.50;;;;;;;-148.56;100.00;61375.16;5084925;28;20061;-33
2022/07/10 08:18:31;;;;;;;5.55;1.80;;;;;;;-148.56;100.00;61375.16;5082005;28;20028;-30
2022/07/10 08:21:55;;;;;;;5.07;1.80;;;;;;;-148.56;100.00;61375.16;5084533;28;20031;-29
2022/07/10 08:25:19;;;;;;;6.45;1.63;;;;;;;-148.56;100.00;61375.16;5079998;28;20034;-32
2022/07/10 08:28:43;;;;;;;6.00;1.88;;;;;;;-148.56;100.00;61375.16;5087191;28;23231;-33
2022/07/10 08:32:07;;;;;;;6.20;2.00;;;;;;;-148.56;100.00;61375.16;5080183;28;20071;-29
2022/07/10 08:35:31;;;;;;;7.45;1.83;;;;;;;-148.56;100.00;61375.16;5072046;28;20047;-30
2022/07/10 08:38:56;;;;;;;12.85;2.33;;;;;;;-148.56;100.00;61375.16;5079250;28;20032;-30
2022/07/10 08:42:21;;;;;;;6.07;2.00;;;;;;;-148.56;100.00;61375.16;5079476;28;20024;-30
2022/07/10 08:45:45;;;;;;;5.80;1.77;;;;;;;-148.56;100.00;61375.16;5069279;28;20035;-30
2022/07/10 08:49:13;;;;;;;8.75;2.10;;;;;;;-148.56;100.00;61375.16;5060035;28;22131;-31
2022/07/10 08:52:43;;;;;;;7.85;1.88;;;;;;;-148.56;100.00;61375.16;5082841;28;20036;-29
2022/07/10 08:56:06;;;;;;;5.88;1.80;;;;;;;-148.56;100.00;61375.16;5079855;28;20770;-30
2022/07/10 08:59:30;;;;;;;5.93;1.77;;;;;;;-148.56;100.00;61375.16;5060587;28;20131;-31
2022/07/10 09:02:55;;;;;;;3.03;1.52;;;;;;;-148.56;100.00;61375.16;5073048;28;20054;-31
2022/07/10 09:06:19;;;;;;;8.23;2.20;;;;;;;-148.56;100.00;61375.16;5072738;28;20723;-30
2022/07/10 09:10:05;;;;;;;14.95;2.15;;;;;;;-148.56;100.00;61375.16;5072497;28;20608;-30
2022/07/10 09:13:29;;;;;;;45.08;3.10;;;;;;;-148.56;100.00;61375.16;5074090;28;20019;-30
2022/07/10 09:16:53;;;;;;;18.38;2.47;;;;;;;-148.56;100.00;61375.16;5067534;28;20114;-31
2022/07/10 09:20:30;;;;;;;15.70;2.20;;;;;;;-148.56;100.00;61375.16;5075038;28;20035;-32
2022/07/10 09:24:14;;;;;;;19.80;2.50;;;;;;;-148.56;100.00;61375.16;5082231;28;20175;-32
2022/07/10 09:27:50;;;;;;;16.45;2.90;;;;;;;-148.56;100.00;61375.16;5080906;28;20115;-31
2022/07/10 09:31:18;;;;;;;19.48;2.88;;;;;;;-148.56;100.00;61375.16;5090213;28;20036;-31
2022/07/10 09:34:44;;;;;;;12.60;3.33;;;;;;;-148.56;100.00;61375.16;5080880;28;20056;-30
2022/07/10 09:38:17;;;;;;;29.80;3.47;;;;;;;-148.56;100.00;61375.16;5089148;28;20046;-29
2022/07/10 09:41:41;;;;;;;10.48;2.60;;;;;;;-148.56;100.00;61375.16;5090275;28;20034;-31
2022/07/10 09:45:20;;;;;;;17.67;3.25;;;;;;;-148.56;100.00;61375.16;5089289;28;20043;-30
2022/07/10 09:48:44;;;;;;;12.77;3.05;;;;;;;-148.56;100.00;61375.16;5090706;28;20038;-30
2022/07/10 09:52:08;;;;;;;13.02;2.85;;;;;;;-148.56;100.00;61375.16;5085538;28;20043;-30
2022/07/10 09:55:33;;;;;;;12.43;3.08;;;;;;;-148.56;100.00;61375.16;5081892;28;20028;-32
2022/07/10 09:58:58;;;;;;;14.23;3.50;;;;;;;-148.56;100.00;61375.16;5079813;28;20111;-30
2022/07/10 10:02:22;;;;;;;17.02;3.30;;;;;;;-148.56;100.00;61375.16;5064373;28;20032;-32
2022/07/10 10:05:55;;;;;;;12.52;3.10;;;;;;;-148.56;100.00;61375.16;5050257;28;20072;-30
2022/07/10 10:09:41;;;;;;;10.77;3.10;;;;;;;-148.56;100.00;61375.16;5079627;28;20035;-27
2022/07/10 10:13:07;;;;;;;9.98;2.95;;;;;;;-148.56;100.00;61375.16;5084111;28;20070;-30
2022/07/10 10:16:31;;;;;;;11.95;3.00;;;;;;;-148.56;100.00;61375.16;5081134;28;20063;-31
2022/07/10 10:23:38;;;;;;;9.40;2.70;;;;;;;-148.56;100.00;61375.16;5071253;28;20046;-28
2022/07/10 10:27:02;;;;;;;7.88;2.55;;;;;;;-148.56;100.00;61375.16;5085553;28;21055;-31
2022/07/10 10:30:27;;;;;;;8.95;3.22;;;;;;;-148.56;100.00;61375.16;5070092;28;20055;-30
2022/07/10 10:33:53;;;;;;;11.00;2.83;;;;;;;-148.56;100.00;61375.16;5082915;28;20032;-32
2022/07/10 10:37:36;;;;;;;7.97;2.70;;;;;;;-148.56;100.00;61375.16;5082935;28;20032;-33
2022/07/10 10:41:20;;;;;;;7.10;2.80;;;;;;;-148.56;100.00;61375.16;5083486;28;20050;-31
2022/07/10 10:45:27;;;;;;;7.65;2.67;;;;;;;-148.56;100.00;61375.16;5084010;28;20027;-31
2022/07/10 10:49:06;;;;;;;8.43;3.03;;;;;;;-148.56;100.00;61375.16;5061890;28;20047;-33
2022/07/10 10:53:01;;;;;;;9.63;2.67;;;;;;;-148.56;100.00;61375.16;5084837;28;20039;-30
2022/07/10 10:56:25;;;;;;;6.00;2.40;;;;;;;-148.56;100.00;61375.16;5086529;28;20043;-31
2022/07/10 10:59:50;;;;;;;10.52;2.42;;;;;;;-148.56;100.00;61375.16;5086451;28;20654;-31
2022/07/10 11:03:21;;;;;;;6.32;2.42;;;;;;;-148.56;100.00;61375.16;5082244;28;20032;-31
2022/07/10 11:06:46;;;;;;;5.95;2.17;;;;;;;-148.56;100.00;61375.16;5079750;28;20132;-31
2022/07/10 11:10:27;;;;;;;6.15;2.15;;;;;;;-148.56;100.00;61375.16;5084024;28;20488;-28
2022/07/10 11:13:59;;;;;;;5.10;2.35;;;;;;;-148.56;100.00;61375.16;5078535;28;20065;-30
2022/07/10 11:17:27;;;;;;;6.75;2.38;;;;;;;-148.56;100.00;61375.16;5084183;28;20046;-32
2022/07/10 11:20:53;;;;;;;5.03;2.10;;;;;;;-148.56;100.00;61375.16;5083663;28;20032;-34
2022/07/10 11:24:29;;;;;;;7.00;2.20;;;;;;;-148.56;100.00;61375.16;5089964;28;20040;-30
2022/07/10 11:28:12;;;;;;;5.22;2.20;;;;;;;-148.56;100.00;61375.16;5090530;28;20024;-33
2022/07/10 11:31:44;;;;;;;5.93;2.08;;;;;;;-148.56;100.00;61375.16;5086331;28;20039;-29
2022/07/10 11:35:11;;;;;;;4.07;2.05;;;;;;;-148.56;100.00;61375.16;5069584;28;20032;-32
2022/07/10 11:38:38;;;;;;;5.65;2.20;;;;;;;-148.56;100.00;61375.16;5083556;28;20024;-31
2022/07/10 11:42:02;;;;;;;4.70;2.08;;;;;;;-148.56;100.00;61375.16;5078091;28;20148;-32
2022/07/10 11:45:27;;;;;;;4.72;1.88;;;;;;;-148.56;100.00;61375.16;5078548;28;20062;-34
2022/07/10 11:48:53;;;;;;;8.98;2.40;;;;;;;-148.56;100.00;61375.16;5079958;28;20028;-30
2022/07/10 11:52:23;;;;;;;10.82;2.28;;;;;;;-148.56;100.00;61375.16;5082063;28;20028;-33
2022/07/10 11:55:49;;;;;;;10.20;2.10;;;;;;;-148.56;100.00;61375.16;5059424;28;20060;-33
2022/07/10 11:59:16;;;;;;;6.30;1.58;;;;;;;-148.56;100.00;61375.16;5082426;28;20040;-33
2022/07/10 12:02:47;;;;;;;8.73;1.92;;;;;;;-148.56;100.00;61375.16;5070395;28;20035;-31
2022/07/10 12:06:29;;;;;;;7.68;1.77;;;;;;;-148.56;100.00;61375.16;5079693;28;20058;-32
2022/07/10 12:09:54;;;;;;;5.22;1.52;;;;;;;-148.56;100.00;61375.16;5077753;28;20547;-35
2022/07/10 12:13:20;;;;;;;7.93;1.30;;;;;;;-148.56;100.00;61375.16;5081866;28;20050;-34
2022/07/10 12:16:45;;;;;;;6.65;1.63;;;;;;;-148.56;100.00;61375.16;5080068;28;20056;-32
2022/07/10 12:20:11;;;;;;;5.25;1.45;;;;;;;-148.56;100.00;61375.16;5082377;28;20036;-32
2022/07/10 12:23:38;;;;;;;5.13;1.58;;;;;;;-148.56;100.00;61375.16;5079138;28;20039;-31
2022/07/10 12:27:02;;;;;;;4.45;1.63;;;;;;;-148.56;100.00;61375.16;5060694;28;20075;-31
2022/07/10 12:30:39;;;;;;;10.30;1.75;;;;;;;-148.56;100.00;61375.16;5083054;28;20153;-29
2022/07/10 12:34:07;;;;;;;4.72;1.73;;;;;;;-148.56;100.00;61375.16;5077967;28;20024;-31
2022/07/10 12:37:49;;;;;;;3.50;1.40;;;;;;;-148.56;100.00;61375.16;5081462;28;20077;-32
2022/07/10 12:41:32;;;;;;;7.93;1.58;;;;;;;-148.56;100.00;61375.16;5080337;28;20430;-33
2022/07/10 12:45:14;;;;;;;5.18;1.30;;;;;;;-148.56;100.00;61375.16;5080166;28;20070;-33
2022/07/10 12:49:20;;;;;;;6.70;1.50;;;;;;;-148.56;100.00;61375.16;5078872;28;20031;-30
2022/07/10 12:52:44;;;;;;;3.22;1.17;;;;;;;-148.56;100.00;61375.16;5039937;28;20055;-31
2022/07/10 12:56:27;;;;;;;6.03;1.00;;;;;;;-148.56;100.00;61375.16;5055306;28;20151;-31
2022/07/10 12:59:51;;;;;;;5.00;1.08;;;;;;;-148.56;100.00;61375.16;5041604;28;20055;-34
2022/07/10 13:03:18;;;;;;;6.78;1.70;;;;;;;-148.56;100.00;61375.16;5058559;28;20537;-33
2022/07/10 13:06:43;;;;;;;5.40;1.13;;;;;;;-148.56;100.00;61375.16;5056842;28;20020;-30
2022/07/10 13:10:17;;;;;;;5.07;1.48;;;;;;;-148.56;100.00;61375.16;5060438;28;20025;-30
2022/07/10 13:13:41;;;;;;;6.82;1.20;;;;;;;-148.56;100.00;61375.16;5050822;28;20036;-31
2022/07/10 13:17:04;;;;;;;4.10;1.27;;;;;;;-148.56;100.00;61375.16;5063358;28;20064;-30
2022/07/10 13:20:28;;;;;;;3.63;1.00;;;;;;;-148.56;100.00;61375.16;5067589;28;20032;-28
2022/07/10 13:23:52;;;;;;;3.83;1.00;;;;;;;-148.56;100.00;61375.16;5064460;28;20024;-33
2022/07/10 13:27:16;;;;;;;4.10;1.13;;;;;;;-148.56;100.00;61375.16;5048566;28;20028;-30
2022/07/10 13:30:40;;;;;;;6.25;1.35;;;;;;;-148.56;100.00;61375.16;5059688;28;20028;-30
2022/07/10 13:34:04;;;;;;;2.47;1.00;;;;;;;-148.56;100.00;61375.16;5057613;28;20044;-32
2022/07/10 13:37:28;;;;;;;4.55;1.17;;;;;;;-148.56;100.00;61375.16;5048221;28;20184;-29
2022/07/10 13:40:52;;;;;;;3.83;1.20;;;;;;;-148.56;100.00;61375.16;5081633;28;20029;-30
2022/07/10 13:44:16;;;;;;;4.75;1.20;;;;;;;-148.56;100.00;61375.16;5060493;28;20679;-32
2022/07/10 13:47:40;;;;;;;3.55;0.98;;;;;;;-148.56;100.00;61375.16;5083735;28;20024;-29
2022/07/10 13:51:04;;;;;;;3.95;1.40;;;;;;;-148.56;100.00;61375.16;5087718;28;20028;-33
2022/07/10 13:54:28;;;;;;;2.85;1.10;;;;;;;-148.56;100.00;61375.16;5086703;28;20871;-31
2022/07/10 13:57:52;;;;;;;5.05;1.02;;;;;;;-148.56;100.00;61375.16;5089559;28;20058;-31
2022/07/10 14:01:16;;;;;;;4.38;1.10;;;;;;;-148.56;100.00;61375.16;5087863;28;20569;-29
2022/07/10 14:04:40;;;;;;;3.70;1.27;;;;;;;-148.56;100.00;61375.16;5085620;28;20059;-29
2022/07/10 14:08:04;;;;;;;4.30;1.40;;;;;;;-148.56;100.00;61375.16;5084328;28;20114;-31
2022/07/10 14:11:28;;;;;;;4.25;1.15;;;;;;;-148.56;100.00;61375.16;5083989;28;20481;-29
2022/07/10 14:14:52;;;;;;;3.05;1.40;;;;;;;-148.56;100.00;61375.16;5056139;28;20039;-30
2022/07/10 14:18:34;;;;;;;7.45;1.33;;;;;;;-148.56;100.00;61375.16;5067066;28;20059;-32
2022/07/10 14:21:59;;;;;;;3.13;1.33;;;;;;;-148.56;100.00;61375.16;5076132;28;20028;-32
2022/07/10 14:25:23;;;;;;;2.78;1.08;;;;;;;-148.56;100.00;61375.16;5079949;28;20112;-30
2022/07/10 14:28:47;;;;;;;7.47;2.28;;;;;;;-148.56;100.00;61375.16;5085765;28;20108;-30
2022/07/10 14:32:10;;;;;;;6.55;2.20;;;;;;;-148.56;100.00;61375.16;5076635;28;20620;-32
2022/07/10 14:35:34;;;;;;;5.63;2.00;;;;;;;-148.56;100.00;61375.16;5076445;28;20153;-32
2022/07/10 14:38:58;;;;;;;5.55;1.65;;;;;;;-148.56;100.00;61375.16;5077606;28;20805;-32
2022/07/10 14:42:22;;;;;;;5.70;1.42;;;;;;;-148.56;100.00;61375.16;5078893;28;20035;-33
2022/07/10 14:45:46;;;;;;;7.55;1.58;;;;;;;-148.56;100.00;61375.16;5078527;28;20035;-31
2022/07/10 14:49:11;;;;;;;4.70;1.60;;;;;;;-148.56;100.00;61375.16;5077563;28;20113;-30
2022/07/10 14:52:37;;;;;;;3.95;1.52;;;;;;;-148.56;100.00;61375.16;5082893;28;20039;-31
2022/07/10 14:56:02;;;;;;;7.15;1.40;;;;;;;-148.56;100.00;61375.16;5081789;28;20031;-30
2022/07/10 14:59:25;;;;;;;9.70;1.77;;;;;;;-148.56;100.00;61375.16;5085522;28;20139;-30
2022/07/10 15:02:49;;;;;;;6.68;1.13;;;;;;;-148.56;100.00;61375.16;5077715;28;20787;-30
2022/07/10 15:06:16;;;;;;;4.43;1.20;;;;;;;-148.56;100.00;61375.16;5078372;28;20032;-32
2022/07/10 15:09:40;;;;;;;3.83;1.30;;;;;;;-148.56;100.00;61375.16;5079463;28;20040;-31
2022/07/10 15:13:05;;;;;;;6.57;1.20;;;;;;;-148.56;100.00;61375.16;5074886;28;20031;-32
2022/07/10 15:16:30;;;;;;;5.28;1.30;;;;;;;-148.56;100.00;61375.16;5079651;28;20044;-31
2022/07/10 15:19:53;;;;;;;6.97;1.10;;;;;;;-148.56;100.00;61375.16;5075526;28;20031;-31
2022/07/10 15:23:17;;;;;;;3.85;1.17;;;;;;;-148.56;100.00;61375.16;5083896;28;21173;-33
2022/07/10 15:26:41;;;;;;;3.13;1.10;;;;;;;-148.56;100.00;61375.16;5081324;28;20115;-31
2022/07/10 15:30:05;;;;;;;4.55;1.08;;;;;;;-148.56;100.00;61375.16;5078650;28;20024;-31
2022/07/10 15:33:29;;;;;;;3.92;1.38;;;;;;;-148.56;100.00;61375.16;5075005;28;20039;-31
2022/07/10 15:36:53;;;;;;;4.70;0.98;;;;;;;-148.56;100.00;61375.16;5078698;28;20031;-31
2022/07/10 15:40:17;;;;;;;3.03;1.15;;;;;;;-148.56;100.00;61375.16;5077634;28;20057;-33
2022/07/10 15:43:42;;;;;;;3.38;1.25;;;;;;;-148.56;100.00;61375.16;5074440;28;20036;-34
2022/07/10 15:47:06;;;;;;;3.30;1.10;;;;;;;-148.56;100.00;61375.16;5084101;28;20029;-33
2022/07/10 15:50:30;;;;;;;3.13;1.10;;;;;;;-148.56;100.00;61375.16;5074241;28;20035;-31